sensor_id;sensor_type;location;lat;lon;timestamp;pressure;altitude;pressure_sealevel;temperature;humidity
20628;BME280;10473;42.734;24.258;2023-05-23T00:02:18;91742.25;;;13.32;80.69
20628;BME280;10473;42.734;24.258;2023-05-23T00:04:45;91747.22;;;13.30;80.46
20628;BME280;10473;42.734;24.258;2023-05-23T00:07:13;91730.81;;;13.42;80.87
20628;BME280;10473;42.734;24.258;2023-05-23T00:09:42;91737.28;;;13.37;80.40
20628;BME280;10473;42.734;24.258;2023-05-23T00:12:10;91737.75;;;13.11;81.25
20628;BME280;10473;42.734;24.258;2023-05-23T00:14:38;91727.88;;;13.05;81.05
20628;BME280;10473;42.734;24.258;2023-05-23T00:17:06;91733.22;;;13.01;81.64
20628;BME280;10473;42.734;24.258;2023-05-23T00:19:35;91726.41;;;13.00;81.43
20628;BME280;10473;42.734;24.258;2023-05-23T00:22:03;91730.94;;;13.03;81.26
20628;BME280;10473;42.734;24.258;2023-05-23T00:24:31;91733.56;;;13.14;81.83
20628;BME280;10473;42.734;24.258;2023-05-23T00:27:00;91736.25;;;13.03;82.58
20628;BME280;10473;42.734;24.258;2023-05-23T00:29:28;91735.88;;;13.01;82.49
20628;BME280;10473;42.734;24.258;2023-05-23T00:31:56;91735.09;;;13.11;82.14
20628;BME280;10473;42.734;24.258;2023-05-23T00:34:23;91733.59;;;13.00;82.52
20628;BME280;10473;42.734;24.258;2023-05-23T00:36:51;91726.00;;;13.09;82.56
20628;BME280;10473;42.734;24.258;2023-05-23T00:39:19;91727.13;;;13.08;81.68
20628;BME280;10473;42.734;24.258;2023-05-23T00:41:48;91732.84;;;13.03;82.28
20628;BME280;10473;42.734;24.258;2023-05-23T00:44:17;91724.44;;;13.15;81.93
20628;BME280;10473;42.734;24.258;2023-05-23T00:46:49;91723.69;;;13.11;82.60
20628;BME280;10473;42.734;24.258;2023-05-23T00:49:18;91717.56;;;13.24;82.19
20628;BME280;10473;42.734;24.258;2023-05-23T00:51:46;91717.56;;;13.28;81.83
20628;BME280;10473;42.734;24.258;2023-05-23T00:54:16;91720.63;;;13.16;82.15
20628;BME280;10473;42.734;24.258;2023-05-23T00:56:45;91722.16;;;13.24;82.62
20628;BME280;10473;42.734;24.258;2023-05-23T00:59:14;91716.88;;;13.10;83.21
20628;BME280;10473;42.734;24.258;2023-05-23T01:01:43;91715.72;;;13.18;82.88
20628;BME280;10473;42.734;24.258;2023-05-23T01:04:12;91725.97;;;13.12;82.74
20628;BME280;10473;42.734;24.258;2023-05-23T01:06:41;91727.88;;;13.05;82.00
20628;BME280;10473;42.734;24.258;2023-05-23T01:09:12;91729.78;;;12.94;82.69
20628;BME280;10473;42.734;24.258;2023-05-23T01:11:42;91715.34;;;13.09;81.46
20628;BME280;10473;42.734;24.258;2023-05-23T01:14:27;91727.50;;;12.99;82.00
20628;BME280;10473;42.734;24.258;2023-05-23T01:17:06;91716.50;;;13.08;81.50
20628;BME280;10473;42.734;24.258;2023-05-23T01:19:50;91719.53;;;12.99;82.18
20628;BME280;10473;42.734;24.258;2023-05-23T01:22:32;91716.13;;;13.02;82.42
20628;BME280;10473;42.734;24.258;2023-05-23T01:25:10;91710.41;;;13.04;81.66
20628;BME280;10473;42.734;24.258;2023-05-23T01:27:47;91708.13;;;12.92;82.38
20628;BME280;10473;42.734;24.258;2023-05-23T01:30:18;91709.28;;;12.91;81.76
20628;BME280;10473;42.734;24.258;2023-05-23T01:32:47;91715.75;;;12.90;82.14
20628;BME280;10473;42.734;24.258;2023-05-23T01:35:23;91713.84;;;12.87;81.95
20628;BME280;10473;42.734;24.258;2023-05-23T01:37:53;91715.38;;;12.91;81.39
20628;BME280;10473;42.734;24.258;2023-05-23T01:40:23;91706.25;;;12.89;81.20
20628;BME280;10473;42.734;24.258;2023-05-23T01:42:54;91708.53;;;13.01;80.69
20628;BME280;10473;42.734;24.258;2023-05-23T01:45:25;91712.31;;;12.93;80.36
20628;BME280;10473;42.734;24.258;2023-05-23T01:47:53;91706.25;;;12.78;80.55
20628;BME280;10473;42.734;24.258;2023-05-23T01:50:23;91703.97;;;12.84;80.55
20628;BME280;10473;42.734;24.258;2023-05-23T01:52:52;91707.03;;;12.79;81.12
20628;BME280;10473;42.734;24.258;2023-05-23T01:55:21;91702.84;;;12.85;80.75
20628;BME280;10473;42.734;24.258;2023-05-23T01:57:50;91712.72;;;12.81;80.61
20628;BME280;10473;42.734;24.258;2023-05-23T02:00:20;91710.44;;;12.83;80.74
20628;BME280;10473;42.734;24.258;2023-05-23T02:02:48;91710.81;;;12.81;79.76
20628;BME280;10473;42.734;24.258;2023-05-23T02:05:17;91713.88;;;12.69;80.37
20628;BME280;10473;42.734;24.258;2023-05-23T02:07:45;91719.19;;;12.66;80.68
20628;BME280;10473;42.734;24.258;2023-05-23T02:10:12;91720.72;;;12.56;81.96
20628;BME280;10473;42.734;24.258;2023-05-23T02:12:40;91722.22;;;12.75;81.96
20628;BME280;10473;42.734;24.258;2023-05-23T02:15:08;91722.22;;;12.68;81.96
20628;BME280;10473;42.734;24.258;2023-05-23T02:17:38;91715.00;;;12.79;82.09
20628;BME280;10473;42.734;24.258;2023-05-23T02:20:07;91716.16;;;12.71;82.15
20628;BME280;10473;42.734;24.258;2023-05-23T02:22:35;91714.25;;;12.47;82.79
20628;BME280;10473;42.734;24.258;2023-05-23T02:25:03;91715.41;;;12.63;82.81
20628;BME280;10473;42.734;24.258;2023-05-23T02:27:32;91710.84;;;12.53;82.84
20628;BME280;10473;42.734;24.258;2023-05-23T02:29:59;91705.50;;;12.60;81.69
20628;BME280;10473;42.734;24.258;2023-05-23T02:32:28;91710.09;;;12.35;82.34
20628;BME280;10473;42.734;24.258;2023-05-23T02:34:57;91706.31;;;12.26;83.15
20628;BME280;10473;42.734;24.258;2023-05-23T02:37:24;91705.19;;;12.34;82.86
20628;BME280;10473;42.734;24.258;2023-05-23T02:39:52;91717.66;;;12.09;83.75
20628;BME280;10473;42.734;24.258;2023-05-23T02:42:21;91719.94;;;11.93;84.35
20628;BME280;10473;42.734;24.258;2023-05-23T02:44:49;91705.53;;;11.97;84.41
20628;BME280;10473;42.734;24.258;2023-05-23T02:47:17;91713.06;;;11.81;85.50
20628;BME280;10473;42.734;24.258;2023-05-23T02:49:45;91713.06;;;11.78;85.36
20628;BME280;10473;42.734;24.258;2023-05-23T02:52:14;91708.94;;;11.91;85.16
20628;BME280;10473;42.734;24.258;2023-05-23T02:54:42;91713.84;;;11.75;84.65
20628;BME280;10473;42.734;24.258;2023-05-23T02:57:09;91700.19;;;11.83;85.33
20628;BME280;10473;42.734;24.258;2023-05-23T02:59:39;91706.25;;;11.84;85.48
20628;BME280;10473;42.734;24.258;2023-05-23T03:02:07;91709.31;;;11.82;85.27
20628;BME280;10473;42.734;24.258;2023-05-23T03:04:35;91700.56;;;11.82;86.32
20628;BME280;10473;42.734;24.258;2023-05-23T03:07:03;91707.41;;;11.86;85.79
20628;BME280;10473;42.734;24.258;2023-05-23T03:09:33;91708.56;;;11.92;85.40
20628;BME280;10473;42.734;24.258;2023-05-23T03:12:01;91698.72;;;12.00;85.13
20628;BME280;10473;42.734;24.258;2023-05-23T03:14:29;91703.63;;;12.08;84.68
20628;BME280;10473;42.734;24.258;2023-05-23T03:16:57;91704.75;;;12.00;84.34
20628;BME280;10473;42.734;24.258;2023-05-23T03:19:25;91704.75;;;11.90;84.83
20628;BME280;10473;42.734;24.258;2023-05-23T03:21:52;91705.50;;;11.80;85.95
20628;BME280;10473;42.734;24.258;2023-05-23T03:24:20;91707.03;;;11.81;85.91
20628;BME280;10473;42.734;24.258;2023-05-23T03:26:50;91706.28;;;11.91;86.21
20628;BME280;10473;42.734;24.258;2023-05-23T03:29:18;91697.94;;;12.06;85.44
20628;BME280;10473;42.734;24.258;2023-05-23T03:31:46;91693.41;;;12.21;84.63
20628;BME280;10473;42.734;24.258;2023-05-23T03:34:13;91696.06;;;12.31;84.72
20628;BME280;10473;42.734;24.258;2023-05-23T03:36:41;91690.38;;;12.40;83.98
20628;BME280;10473;42.734;24.258;2023-05-23T03:39:09;91697.59;;;12.29;83.98
20628;BME280;10473;42.734;24.258;2023-05-23T03:41:37;91693.41;;;12.24;85.12
20628;BME280;10473;42.734;24.258;2023-05-23T03:44:06;91694.53;;;12.23;85.23
20628;BME280;10473;42.734;24.258;2023-05-23T03:46:34;91693.38;;;12.14;85.21
20628;BME280;10473;42.734;24.258;2023-05-23T03:49:02;91708.56;;;12.13;85.63
20628;BME280;10473;42.734;24.258;2023-05-23T03:51:30;91703.25;;;12.20;84.90
20628;BME280;10473;42.734;24.258;2023-05-23T03:53:58;91700.59;;;12.38;84.32
20628;BME280;10473;42.734;24.258;2023-05-23T03:56:26;91701.38;;;12.35;84.72
20628;BME280;10473;42.734;24.258;2023-05-23T03:58:53;91706.69;;;12.49;84.72
20628;BME280;10473;42.734;24.258;2023-05-23T04:01:22;91705.53;;;12.57;84.60
20628;BME280;10473;42.734;24.258;2023-05-23T04:03:54;91709.72;;;12.61;84.79
20628;BME280;10473;42.734;24.258;2023-05-23T04:06:23;91693.72;;;12.72;85.25
20628;BME280;10473;42.734;24.258;2023-05-23T04:08:51;91702.84;;;12.85;85.24
20628;BME280;10473;42.734;24.258;2023-05-23T04:11:44;91704.72;;;13.02;83.93
20628;BME280;10473;42.734;24.258;2023-05-23T04:14:13;91703.97;;;13.01;84.43
20628;BME280;10473;42.734;24.258;2023-05-23T04:16:43;91706.25;;;13.03;85.53
20628;BME280;10473;42.734;24.258;2023-05-23T04:19:11;91704.69;;;13.12;84.43
20628;BME280;10473;42.734;24.258;2023-05-23T04:21:39;91710.78;;;13.06;84.27
20628;BME280;10473;42.734;24.258;2023-05-23T04:24:09;91725.94;;;13.26;84.66
20628;BME280;10473;42.734;24.258;2023-05-23T04:26:38;91716.78;;;13.38;84.43
20628;BME280;10473;42.734;24.258;2023-05-23T04:29:05;91712.09;;;13.66;82.88
20628;BME280;10473;42.734;24.258;2023-05-23T04:31:33;91713.63;;;13.64;83.88
20628;BME280;10473;42.734;24.258;2023-05-23T04:34:02;91724.66;;;13.59;83.05
20628;BME280;10473;42.734;24.258;2023-05-23T04:36:34;91722.75;;;13.63;82.61
20628;BME280;10473;42.734;24.258;2023-05-23T04:39:03;91716.25;;;13.67;82.45
20628;BME280;10473;42.734;24.258;2023-05-23T04:41:33;91722.94;;;13.96;81.93
20628;BME280;10473;42.734;24.258;2023-05-23T04:44:12;91727.44;;;14.10;82.53
20628;BME280;10473;42.734;24.258;2023-05-23T04:47:19;91723.13;;;14.33;81.02
20628;BME280;10473;42.734;24.258;2023-05-23T04:49:55;91723.84;;;14.37;81.44
20628;BME280;10473;42.734;24.258;2023-05-23T04:52:24;91728.19;;;14.65;79.18
20628;BME280;10473;42.734;24.258;2023-05-23T04:54:53;91729.25;;;14.78;78.26
20628;BME280;10473;42.734;24.258;2023-05-23T04:57:21;91737.00;;;14.62;78.94
20628;BME280;10473;42.734;24.258;2023-05-23T04:59:49;91732.78;;;14.64;76.71
20628;BME280;10473;42.734;24.258;2023-05-23T05:02:17;91734.91;;;14.83;76.24
20628;BME280;10473;42.734;24.258;2023-05-23T05:04:45;91738.75;;;14.82;75.71
20628;BME280;10473;42.734;24.258;2023-05-23T05:07:15;91748.03;;;14.64;76.25
20628;BME280;10473;42.734;24.258;2023-05-23T05:09:43;91737.91;;;14.89;76.65
20628;BME280;10473;42.734;24.258;2023-05-23T05:12:11;91729.72;;;15.10;77.40
20628;BME280;10473;42.734;24.258;2023-05-23T05:14:40;91738.38;;;15.21;76.57
20628;BME280;10473;42.734;24.258;2023-05-23T05:17:08;91735.09;;;15.43;76.98
20628;BME280;10473;42.734;24.258;2023-05-23T05:19:54;91730.84;;;15.79;73.58
20628;BME280;10473;42.734;24.258;2023-05-23T05:22:23;91726.59;;;16.12;72.94
20628;BME280;10473;42.734;24.258;2023-05-23T05:24:51;91726.78;;;16.28;72.90
20628;BME280;10473;42.734;24.258;2023-05-23T05:27:19;91739.03;;;16.52;71.65
20628;BME280;10473;42.734;24.258;2023-05-23T05:29:47;91740.81;;;16.62;69.99
20628;BME280;10473;42.734;24.258;2023-05-23T05:32:15;91734.91;;;16.97;71.01
20628;BME280;10473;42.734;24.258;2023-05-23T05:34:43;91747.94;;;16.95;69.81
20628;BME280;10473;42.734;24.258;2023-05-23T05:37:11;91750.03;;;16.84;69.89
20628;BME280;10473;42.734;24.258;2023-05-23T05:39:42;91736.88;;;16.93;69.48
20628;BME280;10473;42.734;24.258;2023-05-23T05:42:10;91743.50;;;17.31;69.23
20628;BME280;10473;42.734;24.258;2023-05-23T05:44:37;91751.88;;;17.56;67.18
20628;BME280;10473;42.734;24.258;2023-05-23T05:47:05;91761.50;;;17.53;67.46
20628;BME280;10473;42.734;24.258;2023-05-23T05:49:33;91762.88;;;17.81;67.04
20628;BME280;10473;42.734;24.258;2023-05-23T05:52:01;91761.75;;;17.98;65.85
20628;BME280;10473;42.734;24.258;2023-05-23T05:54:29;91765.59;;;18.16;65.21
20628;BME280;10473;42.734;24.258;2023-05-23T05:56:58;91764.13;;;18.31;64.19
20628;BME280;10473;42.734;24.258;2023-05-23T05:59:26;91763.09;;;18.45;65.67
20628;BME280;10473;42.734;24.258;2023-05-23T06:01:54;91753.50;;;18.63;65.53
20628;BME280;10473;42.734;24.258;2023-05-23T06:04:22;91750.78;;;18.47;64.50
20628;BME280;10473;42.734;24.258;2023-05-23T06:06:50;91752.81;;;18.75;63.36
20628;BME280;10473;42.734;24.258;2023-05-23T06:09:18;91757.94;;;18.86;65.30
20628;BME280;10473;42.734;24.258;2023-05-23T06:11:46;91757.03;;;19.08;62.22
20628;BME280;10473;42.734;24.258;2023-05-23T06:14:15;91754.75;;;18.75;63.64
20628;BME280;10473;42.734;24.258;2023-05-23T06:16:46;91763.16;;;18.77;64.22
20628;BME280;10473;42.734;24.258;2023-05-23T06:19:14;91764.19;;;18.99;64.01
20628;BME280;10473;42.734;24.258;2023-05-23T06:21:42;91761.63;;;19.08;62.74
20628;BME280;10473;42.734;24.258;2023-05-23T06:24:10;91769.69;;;18.92;63.47
20628;BME280;10473;42.734;24.258;2023-05-23T06:26:38;91766.50;;;18.97;63.56
20628;BME280;10473;42.734;24.258;2023-05-23T06:29:06;91765.94;;;19.21;64.02
20628;BME280;10473;42.734;24.258;2023-05-23T06:31:35;91773.41;;;19.30;62.89
20628;BME280;10473;42.734;24.258;2023-05-23T06:34:05;91773.22;;;19.05;63.08
20628;BME280;10473;42.734;24.258;2023-05-23T06:36:32;91769.44;;;19.18;61.84
20628;BME280;10473;42.734;24.258;2023-05-23T06:39:00;91759.31;;;18.94;64.58
20628;BME280;10473;42.734;24.258;2023-05-23T06:41:27;91769.59;;;19.43;63.14
20628;BME280;10473;42.734;24.258;2023-05-23T06:43:56;91769.75;;;19.52;62.19
20628;BME280;10473;42.734;24.258;2023-05-23T06:46:29;91766.19;;;19.71;64.42
20628;BME280;10473;42.734;24.258;2023-05-23T06:48:58;91769.25;;;19.86;62.56
20628;BME280;10473;42.734;24.258;2023-05-23T06:51:26;91768.09;;;20.15;61.95
20628;BME280;10473;42.734;24.258;2023-05-23T06:53:54;91768.28;;;20.08;62.66
20628;BME280;10473;42.734;24.258;2023-05-23T06:56:22;91766.50;;;20.18;60.97
20628;BME280;10473;42.734;24.258;2023-05-23T06:58:55;91769.72;;;20.13;62.14
20628;BME280;10473;42.734;24.258;2023-05-23T07:01:23;91761.03;;;20.05;63.51
20628;BME280;10473;42.734;24.258;2023-05-23T07:03:51;91760.06;;;19.71;63.24
20628;BME280;10473;42.734;24.258;2023-05-23T07:06:20;91758.13;;;19.27;61.44
20628;BME280;10473;42.734;24.258;2023-05-23T07:08:48;91758.53;;;19.09;65.94
20628;BME280;10473;42.734;24.258;2023-05-23T07:11:16;91747.53;;;18.88;68.12
20628;BME280;10473;42.734;24.258;2023-05-23T07:13:48;91760.31;;;19.00;67.62
20628;BME280;10473;42.734;24.258;2023-05-23T07:16:35;91761.97;;;19.10;66.75
20628;BME280;10473;42.734;24.258;2023-05-23T07:19:06;91764.19;;;18.99;67.32
20628;BME280;10473;42.734;24.258;2023-05-23T07:21:40;91753.75;;;19.17;67.47
20628;BME280;10473;42.734;24.258;2023-05-23T07:24:09;91754.84;;;19.35;67.92
20628;BME280;10473;42.734;24.258;2023-05-23T07:26:37;91755.81;;;19.57;67.29
20628;BME280;10473;42.734;24.258;2023-05-23T07:29:05;91752.97;;;19.77;65.38
20628;BME280;10473;42.734;24.258;2023-05-23T07:31:33;91748.41;;;19.90;65.81
20628;BME280;10473;42.734;24.258;2023-05-23T07:34:01;91754.47;;;20.06;63.25
20628;BME280;10473;42.734;24.258;2023-05-23T07:36:36;91753.03;;;20.18;64.15
20628;BME280;10473;42.734;24.258;2023-05-23T07:39:10;91748.34;;;20.06;64.49
20628;BME280;10473;42.734;24.258;2023-05-23T07:41:38;91748.53;;;20.40;65.06
20628;BME280;10473;42.734;24.258;2023-05-23T07:44:06;91753.19;;;20.64;63.09
20628;BME280;10473;42.734;24.258;2023-05-23T07:46:34;91747.13;;;20.23;53.89
20628;BME280;10473;42.734;24.258;2023-05-23T07:49:02;91747.34;;;20.41;50.07
20628;BME280;10473;42.734;24.258;2023-05-23T07:51:30;91742.19;;;20.46;50.43
20628;BME280;10473;42.734;24.258;2023-05-23T07:53:59;91744.34;;;20.51;48.80
20628;BME280;10473;42.734;24.258;2023-05-23T07:56:28;91739.19;;;20.32;48.74
20628;BME280;10473;42.734;24.258;2023-05-23T07:58:56;91743.91;;;20.28;48.83
20628;BME280;10473;42.734;24.258;2023-05-23T08:01:24;91733.34;;;20.46;50.13
20628;BME280;10473;42.734;24.258;2023-05-23T08:04:02;91734.41;;;20.36;48.21
20628;BME280;10473;42.734;24.258;2023-05-23T08:06:50;91733.56;;;20.39;48.06
20628;BME280;10473;42.734;24.258;2023-05-23T08:09:20;91724.00;;;20.50;46.45
20628;BME280;10473;42.734;24.258;2023-05-23T08:11:52;91729.28;;;20.54;46.76
20628;BME280;10473;42.734;24.258;2023-05-23T08:14:22;91722.94;;;20.73;49.15
20628;BME280;10473;42.734;24.258;2023-05-23T08:17:13;91727.66;;;20.69;48.60
20628;BME280;10473;42.734;24.258;2023-05-23T08:19:41;91730.88;;;20.89;49.40
20628;BME280;10473;42.734;24.258;2023-05-23T08:22:10;91720.75;;;21.05;48.50
20628;BME280;10473;42.734;24.258;2023-05-23T08:24:37;91726.44;;;21.32;50.84
20628;BME280;10473;42.734;24.258;2023-05-23T08:27:07;91735.44;;;21.51;48.30
20628;BME280;10473;42.734;24.258;2023-05-23T08:29:35;91738.09;;;21.17;45.72
20628;BME280;10473;42.734;24.258;2023-05-23T08:32:04;91738.09;;;21.17;46.61
20628;BME280;10473;42.734;24.258;2023-05-23T08:34:33;91731.53;;;21.52;47.38
20628;BME280;10473;42.734;24.258;2023-05-23T08:37:01;91730.34;;;21.87;47.01
20628;BME280;10473;42.734;24.258;2023-05-23T08:39:29;91730.97;;;21.91;46.16
20628;BME280;10473;42.734;24.258;2023-05-23T08:42:20;91730.47;;;21.83;46.05
20628;BME280;10473;42.734;24.258;2023-05-23T08:44:48;91733.50;;;22.07;47.01
20628;BME280;10473;42.734;24.258;2023-05-23T08:47:17;91733.50;;;22.07;44.36
20628;BME280;10473;42.734;24.258;2023-05-23T08:49:57;91735.81;;;21.62;45.10
20628;BME280;10473;42.734;24.258;2023-05-23T08:52:29;91738.28;;;21.35;45.43
20628;BME280;10473;42.734;24.258;2023-05-23T08:54:59;91732.31;;;21.06;46.29
20628;BME280;10473;42.734;24.258;2023-05-23T08:57:30;91742.63;;;20.45;46.91
20628;BME280;10473;42.734;24.258;2023-05-23T09:00:08;91740.34;;;20.43;45.83
20628;BME280;10473;42.734;24.258;2023-05-23T09:02:41;91751.22;;;20.40;46.18
20628;BME280;10473;42.734;24.258;2023-05-23T09:05:20;91759.09;;;20.34;47.43
20628;BME280;10473;42.734;24.258;2023-05-23T09:07:48;91754.13;;;20.33;47.57
20628;BME280;10473;42.734;24.258;2023-05-23T09:10:18;91761.56;;;20.00;47.57
20628;BME280;10473;42.734;24.258;2023-05-23T09:12:47;91744.88;;;19.93;48.55
20628;BME280;10473;42.734;24.258;2023-05-23T09:15:15;91744.78;;;19.96;50.95
20628;BME280;10473;42.734;24.258;2023-05-23T09:17:44;91752.56;;;20.07;49.62
20628;BME280;10473;42.734;24.258;2023-05-23T09:20:13;91742.19;;;20.34;49.36
20628;BME280;10473;42.734;24.258;2023-05-23T09:22:47;91735.53;;;20.51;50.15
20628;BME280;10473;42.734;24.258;2023-05-23T09:25:17;91733.81;;;20.57;46.93
20628;BME280;10473;42.734;24.258;2023-05-23T09:27:47;91734.00;;;20.62;49.34
20628;BME280;10473;42.734;24.258;2023-05-23T09:30:16;91730.69;;;20.96;46.71
20628;BME280;10473;42.734;24.258;2023-05-23T09:32:57;91724.22;;;21.06;46.73
20628;BME280;10473;42.734;24.258;2023-05-23T09:35:27;91719.44;;;21.10;45.03
20628;BME280;10473;42.734;24.258;2023-05-23T09:37:56;91721.19;;;21.04;45.34
20628;BME280;10473;42.734;24.258;2023-05-23T09:40:28;91729.06;;;20.86;44.65
20628;BME280;10473;42.734;24.258;2023-05-23T09:43:04;91731.22;;;20.78;44.36
20628;BME280;10473;42.734;24.258;2023-05-23T09:45:33;91727.13;;;20.74;44.61
20628;BME280;10473;42.734;24.258;2023-05-23T09:48:01;91736.94;;;20.93;45.24
20628;BME280;10473;42.734;24.258;2023-05-23T09:50:32;91742.09;;;20.87;46.72
20628;BME280;10473;42.734;24.258;2023-05-23T09:53:00;91742.00;;;20.53;44.41
20628;BME280;10473;42.734;24.258;2023-05-23T09:55:27;91752.28;;;20.30;47.52
20628;BME280;10473;42.734;24.258;2023-05-23T09:57:57;91749.41;;;20.37;48.02
20628;BME280;10473;42.734;24.258;2023-05-23T10:00:27;91751.09;;;20.31;49.55
20628;BME280;10473;42.734;24.258;2023-05-23T10:03:00;91736.28;;;19.98;51.77
20628;BME280;10473;42.734;24.258;2023-05-23T10:05:36;91738.72;;;20.33;54.02
20628;BME280;10473;42.734;24.258;2023-05-23T10:08:07;91737.03;;;20.52;53.74
20628;BME280;10473;42.734;24.258;2023-05-23T10:13:49;91725.28;;;21.21;50.12
20628;BME280;10473;42.734;24.258;2023-05-23T10:16:22;91716.25;;;21.15;47.07
20628;BME280;10473;42.734;24.258;2023-05-23T10:18:56;91708.25;;;20.99;48.47
20628;BME280;10473;42.734;24.258;2023-05-23T10:21:27;91724.84;;;20.85;45.94
20628;BME280;10473;42.734;24.258;2023-05-23T10:23:58;91714.00;;;20.76;45.44
20628;BME280;10473;42.734;24.258;2023-05-23T10:26:26;91713.75;;;20.83;47.16
20628;BME280;10473;42.734;24.258;2023-05-23T10:28:54;91715.91;;;20.88;47.40
20628;BME280;10473;42.734;24.258;2023-05-23T10:31:25;91711.38;;;20.85;47.19
20628;BME280;10473;42.734;24.258;2023-05-23T10:33:59;91705.44;;;21.02;48.64
20628;BME280;10473;42.734;24.258;2023-05-23T10:36:33;91696.47;;;21.18;47.96
20628;BME280;10473;42.734;24.258;2023-05-23T10:39:07;91697.44;;;21.58;48.36
20628;BME280;10473;42.734;24.258;2023-05-23T10:41:42;91676.34;;;21.65;44.93
20628;BME280;10473;42.734;24.258;2023-05-23T10:44:16;91698.47;;;21.73;44.82
20628;BME280;10473;42.734;24.258;2023-05-23T10:46:53;91697.44;;;21.58;45.67
20628;BME280;10473;42.734;24.258;2023-05-23T10:49:36;91696.75;;;21.79;45.07
20628;BME280;10473;42.734;24.258;2023-05-23T10:52:04;91694.34;;;21.81;43.01
20628;BME280;10473;42.734;24.258;2023-05-23T10:54:41;91689.81;;;21.78;43.36
20628;BME280;10473;42.734;24.258;2023-05-23T10:57:10;91686.81;;;21.42;43.94
20628;BME280;10473;42.734;24.258;2023-05-23T10:59:39;91686.19;;;21.38;43.58
20628;BME280;10473;42.734;24.258;2023-05-23T11:02:13;91670.25;;;21.31;44.05
20628;BME280;10473;42.734;24.258;2023-05-23T11:04:41;91663.19;;;21.12;44.39
20628;BME280;10473;42.734;24.258;2023-05-23T11:07:30;91658.88;;;21.14;44.99
20628;BME280;10473;42.734;24.258;2023-05-23T11:10:08;91665.28;;;21.29;45.83
20628;BME280;10473;42.734;24.258;2023-05-23T11:12:37;91671.66;;;21.23;44.79
20628;BME280;10473;42.734;24.258;2023-05-23T11:15:18;91653.34;;;21.52;43.59
20628;BME280;10473;42.734;24.258;2023-05-23T11:17:53;91655.22;;;21.64;41.21
20628;BME280;10473;42.734;24.258;2023-05-23T11:20:23;91668.22;;;21.78;42.83
20628;BME280;10473;42.734;24.258;2023-05-23T11:22:59;91666.22;;;21.91;44.63
20628;BME280;10473;42.734;24.258;2023-05-23T11:25:41;91659.81;;;22.19;43.76
20628;BME280;10473;42.734;24.258;2023-05-23T11:28:09;91664.91;;;22.26;42.84
20628;BME280;10473;42.734;24.258;2023-05-23T11:30:38;91668.09;;;22.33;41.60
20628;BME280;10473;42.734;24.258;2023-05-23T11:33:08;91665.41;;;22.33;41.39
20628;BME280;10473;42.734;24.258;2023-05-23T11:35:39;91663.41;;;22.25;40.24
20628;BME280;10473;42.734;24.258;2023-05-23T11:38:07;91661.19;;;22.54;42.51
20628;BME280;10473;42.734;24.258;2023-05-23T11:40:37;91666.66;;;22.81;41.43
20628;BME280;10473;42.734;24.258;2023-05-23T11:43:06;91662.44;;;22.71;39.69
20628;BME280;10473;42.734;24.258;2023-05-23T11:45:35;91663.94;;;22.72;42.21
20628;BME280;10473;42.734;24.258;2023-05-23T11:48:09;91664.59;;;22.94;40.47
20628;BME280;10473;42.734;24.258;2023-05-23T11:50:43;91661.25;;;22.81;38.99
20628;BME280;10473;42.734;24.258;2023-05-23T11:53:12;91664.88;;;22.87;38.56
20628;BME280;10473;42.734;24.258;2023-05-23T11:55:48;91664.59;;;22.94;40.28
20628;BME280;10473;42.734;24.258;2023-05-23T11:58:15;91658.16;;;23.00;40.57
20628;BME280;10473;42.734;24.258;2023-05-23T12:00:43;91669.50;;;23.35;39.63
20628;BME280;10473;42.734;24.258;2023-05-23T12:03:13;91659.44;;;23.44;37.90
20628;BME280;10473;42.734;24.258;2023-05-23T12:05:42;91659.91;;;23.52;37.90
20628;BME280;10473;42.734;24.258;2023-05-23T12:08:11;91669.34;;;23.56;39.63
20628;BME280;10473;42.734;24.258;2023-05-23T12:10:48;91665.72;;;23.77;38.30
20628;BME280;10473;42.734;24.258;2023-05-23T12:13:56;91661.09;;;23.33;36.14
20628;BME280;10473;42.734;24.258;2023-05-23T12:16:27;91674.16;;;23.25;38.18
20628;BME280;10473;42.734;24.258;2023-05-23T12:18:57;91665.00;;;22.44;41.46
20628;BME280;10473;42.734;24.258;2023-05-23T12:21:25;91672.59;;;22.27;41.89
20628;BME280;10473;42.734;24.258;2023-05-23T12:23:53;91656.81;;;21.95;43.16
20628;BME280;10473;42.734;24.258;2023-05-23T12:26:21;91657.13;;;21.97;43.06
20628;BME280;10473;42.734;24.258;2023-05-23T12:28:48;91659.59;;;21.49;43.49
20628;BME280;10473;42.734;24.258;2023-05-23T12:31:18;91662.84;;;21.44;44.75
20628;BME280;10473;42.734;24.258;2023-05-23T12:33:46;91657.75;;;21.58;44.31
20628;BME280;10473;42.734;24.258;2023-05-23T12:36:20;91652.72;;;21.48;44.97
20628;BME280;10473;42.734;24.258;2023-05-23T12:38:48;91648.00;;;21.39;43.49
20628;BME280;10473;42.734;24.258;2023-05-23T12:41:17;91651.50;;;21.49;40.30
20628;BME280;10473;42.734;24.258;2023-05-23T12:43:49;91652.63;;;21.73;40.36
20628;BME280;10473;42.734;24.258;2023-05-23T12:46:18;91649.16;;;21.94;41.11
20628;BME280;10473;42.734;24.258;2023-05-23T12:48:45;91644.66;;;21.91;42.69
20628;BME280;10473;42.734;24.258;2023-05-23T12:51:15;91641.72;;;21.64;44.09
20628;BME280;10473;42.734;24.258;2023-05-23T12:53:43;91633.72;;;21.73;42.39
20628;BME280;10473;42.734;24.258;2023-05-23T12:56:11;91642.78;;;21.79;42.54
20628;BME280;10473;42.734;24.258;2023-05-23T12:58:38;91637.75;;;21.68;41.81
20628;BME280;10473;42.734;24.258;2023-05-23T13:01:06;91638.38;;;21.51;42.95
20628;BME280;10473;42.734;24.258;2023-05-23T13:03:34;91622.72;;;21.24;41.92
20628;BME280;10473;42.734;24.258;2023-05-23T13:06:02;91628.56;;;21.23;41.82
20628;BME280;10473;42.734;24.258;2023-05-23T13:08:31;91620.91;;;21.21;40.33
20628;BME280;10473;42.734;24.258;2023-05-23T13:10:59;91621.72;;;21.09;39.88